sensor_id;sensor_type;location;lat;lon;timestamp;temperature;humidity
7588;DHT22;3835;48.850;8.938;2023-07-16T00:00:36;18.00;99.90
7588;DHT22;3835;48.850;8.938;2023-07-16T00:03:04;18.00;99.90
7588;DHT22;3835;48.850;8.938;2023-07-16T00:05:32;17.90;99.90
7588;DHT22;3835;48.850;8.938;2023-07-16T00:08:01;17.90;99.90
7588;DHT22;3835;48.850;8.938;2023-07-16T00:10:34;17.90;99.90
7588;DHT22;3835;48.850;8.938;2023-07-16T00:13:01;17.90;99.90
7588;DHT22;3835;48.850;8.938;2023-07-16T00:15:30;17.90;99.90
7588;DHT22;3835;48.850;8.938;2023-07-16T00:18:01;17.90;99.90
7588;DHT22;3835;48.850;8.938;2023-07-16T00:20:31;18.00;99.90
7588;DHT22;3835;48.850;8.938;2023-07-16T00:22:59;18.00;99.90
7588;DHT22;3835;48.850;8.938;2023-07-16T00:25:27;18.00;99.90
7588;DHT22;3835;48.850;8.938;2023-07-16T00:27:56;18.00;99.90
7588;DHT22;3835;48.850;8.938;2023-07-16T00:30:25;17.90;99.90
7588;DHT22;3835;48.850;8.938;2023-07-16T00:32:53;17.90;99.90
7588;DHT22;3835;48.850;8.938;2023-07-16T00:35:20;17.90;99.90
7588;DHT22;3835;48.850;8.938;2023-07-16T00:37:47;17.90;99.90
7588;DHT22;3835;48.850;8.938;2023-07-16T00:40:14;17.90;99.90
7588;DHT22;3835;48.850;8.938;2023-07-16T00:42:41;17.90;99.90
7588;DHT22;3835;48.850;8.938;2023-07-16T00:45:12;17.90;99.90
7588;DHT22;3835;48.850;8.938;2023-07-16T00:47:41;18.00;99.90
7588;DHT22;3835;48.850;8.938;2023-07-16T00:50:09;18.00;99.90
7588;DHT22;3835;48.850;8.938;2023-07-16T00:52:36;18.00;99.90
7588;DHT22;3835;48.850;8.938;2023-07-16T00:55:04;18.00;99.90
7588;DHT22;3835;48.850;8.938;2023-07-16T00:57:33;18.00;99.90
7588;DHT22;3835;48.850;8.938;2023-07-16T01:00:00;18.00;99.90
7588;DHT22;3835;48.850;8.938;2023-07-16T01:02:28;18.00;99.90
7588;DHT22;3835;48.850;8.938;2023-07-16T01:04:55;17.90;99.90
7588;DHT22;3835;48.850;8.938;2023-07-16T01:07:24;17.90;99.90
7588;DHT22;3835;48.850;8.938;2023-07-16T01:09:53;17.80;99.90
7588;DHT22;3835;48.850;8.938;2023-07-16T01:12:21;17.70;99.90
7588;DHT22;3835;48.850;8.938;2023-07-16T01:14:49;17.60;99.90
7588;DHT22;3835;48.850;8.938;2023-07-16T01:17:17;17.60;99.90
7588;DHT22;3835;48.850;8.938;2023-07-16T01:19:45;17.60;99.90
7588;DHT22;3835;48.850;8.938;2023-07-16T01:25:13;17.50;99.90
7588;DHT22;3835;48.850;8.938;2023-07-16T01:28:00;17.50;99.90
7588;DHT22;3835;48.850;8.938;2023-07-16T01:30:36;17.50;99.90
7588;DHT22;3835;48.850;8.938;2023-07-16T01:33:04;17.40;99.90
7588;DHT22;3835;48.850;8.938;2023-07-16T01:35:31;17.40;99.90
7588;DHT22;3835;48.850;8.938;2023-07-16T01:37:59;17.30;99.90
7588;DHT22;3835;48.850;8.938;2023-07-16T01:40:26;17.30;99.90
7588;DHT22;3835;48.850;8.938;2023-07-16T01:42:53;17.30;99.90
7588;DHT22;3835;48.850;8.938;2023-07-16T01:45:19;17.30;99.90
7588;DHT22;3835;48.850;8.938;2023-07-16T01:47:55;17.20;99.90
7588;DHT22;3835;48.850;8.938;2023-07-16T01:50:25;17.20;99.90
7588;DHT22;3835;48.850;8.938;2023-07-16T01:52:52;17.10;99.90
7588;DHT22;3835;48.850;8.938;2023-07-16T01:55:19;17.10;99.90
7588;DHT22;3835;48.850;8.938;2023-07-16T01:57:45;17.10;99.90
7588;DHT22;3835;48.850;8.938;2023-07-16T02:00:12;17.10;99.90
7588;DHT22;3835;48.850;8.938;2023-07-16T02:02:39;17.00;99.90
7588;DHT22;3835;48.850;8.938;2023-07-16T02:05:08;17.00;99.90
7588;DHT22;3835;48.850;8.938;2023-07-16T02:07:35;17.10;99.90
7588;DHT22;3835;48.850;8.938;2023-07-16T02:10:02;17.00;99.90
7588;DHT22;3835;48.850;8.938;2023-07-16T02:12:29;17.00;99.90
7588;DHT22;3835;48.850;8.938;2023-07-16T02:14:55;17.10;99.90
7588;DHT22;3835;48.850;8.938;2023-07-16T02:17:22;17.10;99.90
7588;DHT22;3835;48.850;8.938;2023-07-16T02:19:49;17.10;99.90
7588;DHT22;3835;48.850;8.938;2023-07-16T02:22:17;17.10;99.90
7588;DHT22;3835;48.850;8.938;2023-07-16T02:24:44;17.10;99.90
7588;DHT22;3835;48.850;8.938;2023-07-16T02:27:11;17.00;99.90
7588;DHT22;3835;48.850;8.938;2023-07-16T02:29:37;17.00;99.90
7588;DHT22;3835;48.850;8.938;2023-07-16T02:32:04;17.00;99.90
7588;DHT22;3835;48.850;8.938;2023-07-16T02:34:31;17.00;99.90
7588;DHT22;3835;48.850;8.938;2023-07-16T02:36:58;17.00;99.90
7588;DHT22;3835;48.850;8.938;2023-07-16T02:39:26;17.00;99.90
7588;DHT22;3835;48.850;8.938;2023-07-16T02:41:53;17.00;99.90
7588;DHT22;3835;48.850;8.938;2023-07-16T02:44:20;16.90;99.90
7588;DHT22;3835;48.850;8.938;2023-07-16T02:46:46;16.90;99.90
7588;DHT22;3835;48.850;8.938;2023-07-16T02:49:13;16.80;99.90
7588;DHT22;3835;48.850;8.938;2023-07-16T02:51:40;16.80;99.90
7588;DHT22;3835;48.850;8.938;2023-07-16T02:54:07;16.80;99.90
7588;DHT22;3835;48.850;8.938;2023-07-16T02:56:35;16.80;99.90
7588;DHT22;3835;48.850;8.938;2023-07-16T02:59:02;16.80;99.90
7588;DHT22;3835;48.850;8.938;2023-07-16T03:01:28;16.80;99.90
7588;DHT22;3835;48.850;8.938;2023-07-16T03:03:55;16.70;99.90
7588;DHT22;3835;48.850;8.938;2023-07-16T03:06:22;16.70;99.90
7588;DHT22;3835;48.850;8.938;2023-07-16T03:08:49;16.70;99.90
7588;DHT22;3835;48.850;8.938;2023-07-16T03:11:16;16.70;99.90
7588;DHT22;3835;48.850;8.938;2023-07-16T03:13:44;16.70;99.90
7588;DHT22;3835;48.850;8.938;2023-07-16T03:16:11;16.70;99.90
7588;DHT22;3835;48.850;8.938;2023-07-16T03:18:38;16.70;99.90
7588;DHT22;3835;48.850;8.938;2023-07-16T03:21:04;16.60;99.90
7588;DHT22;3835;48.850;8.938;2023-07-16T03:23:31;16.70;99.90
7588;DHT22;3835;48.850;8.938;2023-07-16T03:25:58;16.60;99.90
7588;DHT22;3835;48.850;8.938;2023-07-16T03:28:25;16.60;99.90
7588;DHT22;3835;48.850;8.938;2023-07-16T03:30:53;16.60;99.90
7588;DHT22;3835;48.850;8.938;2023-07-16T03:33:19;16.60;99.90
7588;DHT22;3835;48.850;8.938;2023-07-16T03:35:48;16.60;99.90
7588;DHT22;3835;48.850;8.938;2023-07-16T03:38:15;16.60;99.90
7588;DHT22;3835;48.850;8.938;2023-07-16T03:40:46;16.60;99.90
7588;DHT22;3835;48.850;8.938;2023-07-16T03:43:13;16.50;99.90
7588;DHT22;3835;48.850;8.938;2023-07-16T03:45:40;16.60;99.90
7588;DHT22;3835;48.850;8.938;2023-07-16T03:48:08;16.50;99.90
7588;DHT22;3835;48.850;8.938;2023-07-16T03:50:35;16.50;99.90
7588;DHT22;3835;48.850;8.938;2023-07-16T03:53:02;16.50;99.90
7588;DHT22;3835;48.850;8.938;2023-07-16T03:55:29;16.50;99.90
7588;DHT22;3835;48.850;8.938;2023-07-16T03:57:56;16.50;99.90
7588;DHT22;3835;48.850;8.938;2023-07-16T04:00:23;16.40;99.90
7588;DHT22;3835;48.850;8.938;2023-07-16T04:02:49;16.50;99.90
7588;DHT22;3835;48.850;8.938;2023-07-16T04:05:18;16.50;99.90
7588;DHT22;3835;48.850;8.938;2023-07-16T04:07:45;16.50;99.90
7588;DHT22;3835;48.850;8.938;2023-07-16T04:10:12;16.50;99.90
7588;DHT22;3835;48.850;8.938;2023-07-16T04:12:38;16.60;99.90
7588;DHT22;3835;48.850;8.938;2023-07-16T04:15:08;16.60;99.90
7588;DHT22;3835;48.850;8.938;2023-07-16T04:17:35;16.70;99.90
7588;DHT22;3835;48.850;8.938;2023-07-16T04:20:02;16.60;99.90
7588;DHT22;3835;48.850;8.938;2023-07-16T04:22:32;16.60;99.90
7588;DHT22;3835;48.850;8.938;2023-07-16T04:24:58;16.60;99.90
7588;DHT22;3835;48.850;8.938;2023-07-16T04:27:25;16.60;99.90
7588;DHT22;3835;48.850;8.938;2023-07-16T04:29:52;16.60;99.90
7588;DHT22;3835;48.850;8.938;2023-07-16T04:32:19;16.50;99.90
7588;DHT22;3835;48.850;8.938;2023-07-16T04:34:45;16.50;99.90
7588;DHT22;3835;48.850;8.938;2023-07-16T04:37:12;16.50;99.90
7588;DHT22;3835;48.850;8.938;2023-07-16T04:39:40;16.50;99.90
7588;DHT22;3835;48.850;8.938;2023-07-16T04:42:07;16.50;99.90
7588;DHT22;3835;48.850;8.938;2023-07-16T04:44:34;16.60;99.90
7588;DHT22;3835;48.850;8.938;2023-07-16T04:47:00;16.60;99.90
7588;DHT22;3835;48.850;8.938;2023-07-16T04:49:27;16.60;99.90
7588;DHT22;3835;48.850;8.938;2023-07-16T04:51:54;16.60;99.90
7588;DHT22;3835;48.850;8.938;2023-07-16T04:54:21;16.60;99.90
7588;DHT22;3835;48.850;8.938;2023-07-16T04:56:49;16.60;99.90
7588;DHT22;3835;48.850;8.938;2023-07-16T04:59:15;16.60;99.90
7588;DHT22;3835;48.850;8.938;2023-07-16T05:01:42;16.70;99.90
7588;DHT22;3835;48.850;8.938;2023-07-16T05:04:09;16.70;99.90
7588;DHT22;3835;48.850;8.938;2023-07-16T05:06:36;16.80;99.90
7588;DHT22;3835;48.850;8.938;2023-07-16T05:09:02;16.90;99.90
7588;DHT22;3835;48.850;8.938;2023-07-16T05:11:29;17.00;99.90
7588;DHT22;3835;48.850;8.938;2023-07-16T05:13:57;17.00;99.90
7588;DHT22;3835;48.850;8.938;2023-07-16T05:16:24;17.10;99.90
7588;DHT22;3835;48.850;8.938;2023-07-16T05:18:51;17.20;99.90
7588;DHT22;3835;48.850;8.938;2023-07-16T05:21:18;17.20;99.90
7588;DHT22;3835;48.850;8.938;2023-07-16T05:23:44;17.30;99.90
7588;DHT22;3835;48.850;8.938;2023-07-16T05:26:11;17.40;99.90
7588;DHT22;3835;48.850;8.938;2023-07-16T05:28:38;17.50;99.90
7588;DHT22;3835;48.850;8.938;2023-07-16T05:31:06;17.60;99.90
7588;DHT22;3835;48.850;8.938;2023-07-16T05:33:33;17.60;99.90
7588;DHT22;3835;48.850;8.938;2023-07-16T05:35:59;17.70;99.90
7588;DHT22;3835;48.850;8.938;2023-07-16T05:38:26;17.70;99.90
7588;DHT22;3835;48.850;8.938;2023-07-16T05:40:53;17.70;99.90
7588;DHT22;3835;48.850;8.938;2023-07-16T05:43:19;17.80;99.90
7588;DHT22;3835;48.850;8.938;2023-07-16T05:45:48;18.20;99.90
7588;DHT22;3835;48.850;8.938;2023-07-16T05:48:16;18.70;99.90
7588;DHT22;3835;48.850;8.938;2023-07-16T05:50:43;18.80;99.90
7588;DHT22;3835;48.850;8.938;2023-07-16T05:53:10;18.70;99.90
7588;DHT22;3835;48.850;8.938;2023-07-16T05:55:39;18.60;99.90
7588;DHT22;3835;48.850;8.938;2023-07-16T05:58:06;18.60;99.90
7588;DHT22;3835;48.850;8.938;2023-07-16T06:00:33;18.30;99.90
7588;DHT22;3835;48.850;8.938;2023-07-16T06:03:00;18.20;99.90
7588;DHT22;3835;48.850;8.938;2023-07-16T06:05:28;18.30;99.90
7588;DHT22;3835;48.850;8.938;2023-07-16T06:07:57;18.20;99.90
7588;DHT22;3835;48.850;8.938;2023-07-16T06:10:24;18.20;99.90
7588;DHT22;3835;48.850;8.938;2023-07-16T06:12:51;18.20;99.90
7588;DHT22;3835;48.850;8.938;2023-07-16T06:15:18;18.20;99.90
7588;DHT22;3835;48.850;8.938;2023-07-16T06:17:44;18.30;99.90
7588;DHT22;3835;48.850;8.938;2023-07-16T06:20:11;18.40;99.90
7588;DHT22;3835;48.850;8.938;2023-07-16T06:22:39;18.40;99.90
7588;DHT22;3835;48.850;8.938;2023-07-16T06:25:07;18.60;99.90
7588;DHT22;3835;48.850;8.938;2023-07-16T06:27:36;18.60;99.90
7588;DHT22;3835;48.850;8.938;2023-07-16T06:30:03;18.60;99.90
7588;DHT22;3835;48.850;8.938;2023-07-16T06:32:31;18.60;99.90
7588;DHT22;3835;48.850;8.938;2023-07-16T06:34:58;18.60;99.90
7588;DHT22;3835;48.850;8.938;2023-07-16T06:37:24;18.80;99.90
7588;DHT22;3835;48.850;8.938;2023-07-16T06:39:53;19.00;99.90
7588;DHT22;3835;48.850;8.938;2023-07-16T06:42:19;19.00;99.90
7588;DHT22;3835;48.850;8.938;2023-07-16T06:44:47;19.00;99.90
7588;DHT22;3835;48.850;8.938;2023-07-16T06:47:13;18.90;99.90
7588;DHT22;3835;48.850;8.938;2023-07-16T06:49:40;19.00;99.90
7588;DHT22;3835;48.850;8.938;2023-07-16T06:52:07;19.00;99.90
7588;DHT22;3835;48.850;8.938;2023-07-16T06:54:35;19.10;99.90
7588;DHT22;3835;48.850;8.938;2023-07-16T06:57:03;19.40;99.90
7588;DHT22;3835;48.850;8.938;2023-07-16T06:59:30;19.50;99.90
7588;DHT22;3835;48.850;8.938;2023-07-16T07:01:57;19.60;99.90
7588;DHT22;3835;48.850;8.938;2023-07-16T07:04:24;19.60;99.90
7588;DHT22;3835;48.850;8.938;2023-07-16T07:06:50;19.60;99.90
7588;DHT22;3835;48.850;8.938;2023-07-16T07:09:17;19.80;99.90
7588;DHT22;3835;48.850;8.938;2023-07-16T07:11:44;20.00;99.90
7588;DHT22;3835;48.850;8.938;2023-07-16T07:14:12;20.10;99.90
7588;DHT22;3835;48.850;8.938;2023-07-16T07:16:39;20.30;99.90
7588;DHT22;3835;48.850;8.938;2023-07-16T07:19:05;20.40;99.90
7588;DHT22;3835;48.850;8.938;2023-07-16T07:21:32;20.90;99.90
7588;DHT22;3835;48.850;8.938;2023-07-16T07:23:59;21.30;99.90
7588;DHT22;3835;48.850;8.938;2023-07-16T07:26:26;21.50;99.90
7588;DHT22;3835;48.850;8.938;2023-07-16T07:28:52;21.30;99.90
7588;DHT22;3835;48.850;8.938;2023-07-16T07:31:21;21.40;99.90
7588;DHT22;3835;48.850;8.938;2023-07-16T07:33:47;21.30;99.90
7588;DHT22;3835;48.850;8.938;2023-07-16T07:36:14;21.00;99.90
7588;DHT22;3835;48.850;8.938;2023-07-16T07:38:41;20.80;99.90
7588;DHT22;3835;48.850;8.938;2023-07-16T07:41:08;20.70;99.90
7588;DHT22;3835;48.850;8.938;2023-07-16T07:43:34;20.50;99.90
7588;DHT22;3835;48.850;8.938;2023-07-16T07:46:01;20.70;99.90
7588;DHT22;3835;48.850;8.938;2023-07-16T07:48:29;20.90;99.90
7588;DHT22;3835;48.850;8.938;2023-07-16T07:50:56;20.90;99.90
7588;DHT22;3835;48.850;8.938;2023-07-16T07:53:23;21.00;99.90
7588;DHT22;3835;48.850;8.938;2023-07-16T07:55:49;21.00;99.90
7588;DHT22;3835;48.850;8.938;2023-07-16T07:58:16;21.00;99.90
7588;DHT22;3835;48.850;8.938;2023-07-16T08:00:43;20.90;99.90
7588;DHT22;3835;48.850;8.938;2023-07-16T08:03:10;20.60;99.90
7588;DHT22;3835;48.850;8.938;2023-07-16T08:05:38;21.00;99.90
7588;DHT22;3835;48.850;8.938;2023-07-16T08:08:05;21.60;99.90
7588;DHT22;3835;48.850;8.938;2023-07-16T08:10:31;21.90;99.90
7588;DHT22;3835;48.850;8.938;2023-07-16T08:12:58;22.40;99.90
7588;DHT22;3835;48.850;8.938;2023-07-16T08:15:25;22.60;99.90
7588;DHT22;3835;48.850;8.938;2023-07-16T08:17:52;22.30;99.90
7588;DHT22;3835;48.850;8.938;2023-07-16T08:20:19;22.50;99.90
7588;DHT22;3835;48.850;8.938;2023-07-16T08:22:47;22.60;99.90
7588;DHT22;3835;48.850;8.938;2023-07-16T08:25:14;21.90;99.90
7588;DHT22;3835;48.850;8.938;2023-07-16T08:27:41;22.20;99.90
7588;DHT22;3835;48.850;8.938;2023-07-16T08:30:08;22.70;99.90
7588;DHT22;3835;48.850;8.938;2023-07-16T08:32:35;22.60;99.90
7588;DHT22;3835;48.850;8.938;2023-07-16T08:35:02;21.80;99.90
7588;DHT22;3835;48.850;8.938;2023-07-16T08:37:29;21.50;99.90
7588;DHT22;3835;48.850;8.938;2023-07-16T08:39:57;21.10;99.90
7588;DHT22;3835;48.850;8.938;2023-07-16T08:42:24;20.80;99.90
7588;DHT22;3835;48.850;8.938;2023-07-16T08:44:51;20.40;99.90
7588;DHT22;3835;48.850;8.938;2023-07-16T08:47:18;20.10;99.90
7588;DHT22;3835;48.850;8.938;2023-07-16T08:49:54;19.90;99.90
7588;DHT22;3835;48.850;8.938;2023-07-16T08:52:21;19.80;99.90
7588;DHT22;3835;48.850;8.938;2023-07-16T08:54:48;19.70;99.90
7588;DHT22;3835;48.850;8.938;2023-07-16T08:57:16;19.90;99.90
7588;DHT22;3835;48.850;8.938;2023-07-16T08:59:44;20.00;99.90
7588;DHT22;3835;48.850;8.938;2023-07-16T09:02:15;20.00;99.90
7588;DHT22;3835;48.850;8.938;2023-07-16T09:04:41;20.20;99.90
7588;DHT22;3835;48.850;8.938;2023-07-16T09:07:08;20.50;99.90
7588;DHT22;3835;48.850;8.938;2023-07-16T09:09:35;20.60;99.90
7588;DHT22;3835;48.850;8.938;2023-07-16T09:12:02;20.60;99.90
7588;DHT22;3835;48.850;8.938;2023-07-16T09:14:30;20.90;99.90
7588;DHT22;3835;48.850;8.938;2023-07-16T09:16:57;21.20;99.90
7588;DHT22;3835;48.850;8.938;2023-07-16T09:19:25;21.50;99.90
7588;DHT22;3835;48.850;8.938;2023-07-16T09:21:52;21.90;99.90
7588;DHT22;3835;48.850;8.938;2023-07-16T09:24:19;22.40;99.90
7588;DHT22;3835;48.850;8.938;2023-07-16T09:26:49;22.40;99.90
7588;DHT22;3835;48.850;8.938;2023-07-16T09:29:16;22.70;99.90
7588;DHT22;3835;48.850;8.938;2023-07-16T09:31:59;22.80;99.90
7588;DHT22;3835;48.850;8.938;2023-07-16T09:34:29;22.80;99.90
7588;DHT22;3835;48.850;8.938;2023-07-16T09:36:56;23.00;99.90
7588;DHT22;3835;48.850;8.938;2023-07-16T09:39:23;23.20;99.90
7588;DHT22;3835;48.850;8.938;2023-07-16T09:41:51;23.30;99.90
7588;DHT22;3835;48.850;8.938;2023-07-16T09:44:18;23.10;99.90
7588;DHT22;3835;48.850;8.938;2023-07-16T09:46:46;22.80;99.90
7588;DHT22;3835;48.850;8.938;2023-07-16T09:49:16;22.50;99.90
7588;DHT22;3835;48.850;8.938;2023-07-16T09:51:44;22.10;99.90
7588;DHT22;3835;48.850;8.938;2023-07-16T09:54:13;22.40;99.90
7588;DHT22;3835;48.850;8.938;2023-07-16T09:56:43;22.40;99.90
7588;DHT22;3835;48.850;8.938;2023-07-16T09:59:13;22.80;99.90
7588;DHT22;3835;48.850;8.938;2023-07-16T10:01:40;23.00;99.90
7588;DHT22;3835;48.850;8.938;2023-07-16T10:04:12;23.00;99.90
7588;DHT22;3835;48.850;8.938;2023-07-16T10:06:51;22.80;99.90
7588;DHT22;3835;48.850;8.938;2023-07-16T10:09:34;22.70;99.90
7588;DHT22;3835;48.850;8.938;2023-07-16T10:12:14;22.50;99.90
7588;DHT22;3835;48.850;8.938;2023-07-16T10:14:43;22.50;99.90
7588;DHT22;3835;48.850;8.938;2023-07-16T10:17:14;22.80;99.90
7588;DHT22;3835;48.850;8.938;2023-07-16T10:19:55;23.20;99.90
7588;DHT22;3835;48.850;8.938;2023-07-16T10:22:34;23.40;99.90
7588;DHT22;3835;48.850;8.938;2023-07-16T10:25:03;23.60;99.90
7588;DHT22;3835;48.850;8.938;2023-07-16T10:27:31;23.60;99.90
7588;DHT22;3835;48.850;8.938;2023-07-16T10:29:59;23.70;99.90
7588;DHT22;3835;48.850;8.938;2023-07-16T10:32:29;23.60;99.90
7588;DHT22;3835;48.850;8.938;2023-07-16T10:34:56;23.30;99.90
7588;DHT22;3835;48.850;8.938;2023-07-16T10:37:24;23.60;99.90
7588;DHT22;3835;48.850;8.938;2023-07-16T10:39:54;24.00;99.90
7588;DHT22;3835;48.850;8.938;2023-07-16T10:42:22;24.10;99.90
7588;DHT22;3835;48.850;8.938;2023-07-16T10:44:49;24.10;99.90
7588;DHT22;3835;48.850;8.938;2023-07-16T10:47:22;23.70;99.90
7588;DHT22;3835;48.850;8.938;2023-07-16T10:49:49;23.30;99.90
7588;DHT22;3835;48.850;8.938;2023-07-16T10:52:18;23.50;99.90
7588;DHT22;3835;48.850;8.938;2023-07-16T10:54:44;24.40;99.90
7588;DHT22;3835;48.850;8.938;2023-07-16T10:57:13;24.60;99.90
7588;DHT22;3835;48.850;8.938;2023-07-16T10:59:42;24.50;99.90
7588;DHT22;3835;48.850;8.938;2023-07-16T11:02:11;23.80;99.90
7588;DHT22;3835;48.850;8.938;2023-07-16T11:04:38;23.60;99.90
7588;DHT22;3835;48.850;8.938;2023-07-16T11:07:06;23.00;99.90
7588;DHT22;3835;48.850;8.938;2023-07-16T11:09:34;22.80;99.90
7588;DHT22;3835;48.850;8.938;2023-07-16T11:12:07;22.50;99.90
7588;DHT22;3835;48.850;8.938;2023-07-16T11:14:35;22.30;99.90
7588;DHT22;3835;48.850;8.938;2023-07-16T11:17:06;22.70;99.90
7588;DHT22;3835;48.850;8.938;2023-07-16T11:19:34;23.00;99.90
7588;DHT22;3835;48.850;8.938;2023-07-16T11:22:02;23.30;99.90
7588;DHT22;3835;48.850;8.938;2023-07-16T11:24:31;23.80;99.90
7588;DHT22;3835;48.850;8.938;2023-07-16T11:27:02;23.80;99.90
7588;DHT22;3835;48.850;8.938;2023-07-16T11:29:35;24.20;99.90
7588;DHT22;3835;48.850;8.938;2023-07-16T11:32:04;24.80;99.90
7588;DHT22;3835;48.850;8.938;2023-07-16T11:34:31;25.00;99.90
7588;DHT22;3835;48.850;8.938;2023-07-16T11:37:07;24.90;99.90
7588;DHT22;3835;48.850;8.938;2023-07-16T11:39:35;24.60;99.90
7588;DHT22;3835;48.850;8.938;2023-07-16T11:42:02;24.30;99.90
7588;DHT22;3835;48.850;8.938;2023-07-16T11:44:34;24.10;99.90
7588;DHT22;3835;48.850;8.938;2023-07-16T11:47:02;23.60;99.90
7588;DHT22;3835;48.850;8.938;2023-07-16T11:49:29;23.40;99.90
7588;DHT22;3835;48.850;8.938;2023-07-16T11:51:57;23.80;99.90
7588;DHT22;3835;48.850;8.938;2023-07-16T11:54:24;24.50;99.90
7588;DHT22;3835;48.850;8.938;2023-07-16T11:56:50;25.00;99.90
7588;DHT22;3835;48.850;8.938;2023-07-16T11:59:17;25.00;99.90
7588;DHT22;3835;48.850;8.938;2023-07-16T12:01:47;24.90;99.90
7588;DHT22;3835;48.850;8.938;2023-07-16T12:04:15;24.80;99.90
7588;DHT22;3835;48.850;8.938;2023-07-16T12:06:42;24.80;99.90
7588;DHT22;3835;48.850;8.938;2023-07-16T12:09:09;25.30;99.90
7588;DHT22;3835;48.850;8.938;2023-07-16T12:11:35;25.30;99.90
7588;DHT22;3835;48.850;8.938;2023-07-16T12:14:03;25.40;99.90
7588;DHT22;3835;48.850;8.938;2023-07-16T12:16:30;25.30;99.90
7588;DHT22;3835;48.850;8.938;2023-07-16T12:18:58;24.90;99.90
7588;DHT22;3835;48.850;8.938;2023-07-16T12:21:25;24.70;99.90
7588;DHT22;3835;48.850;8.938;2023-07-16T12:23:52;25.10;99.90
7588;DHT22;3835;48.850;8.938;2023-07-16T12:26:19;24.90;99.90
7588;DHT22;3835;48.850;8.938;2023-07-16T12:28:45;25.20;99.90
7588;DHT22;3835;48.850;8.938;2023-07-16T12:31:12;25.30;99.90
7588;DHT22;3835;48.850;8.938;2023-07-16T12:33:39;25.50;99.90
7588;DHT22;3835;48.850;8.938;2023-07-16T12:36:07;25.60;99.90
7588;DHT22;3835;48.850;8.938;2023-07-16T12:38:34;25.70;99.90
7588;DHT22;3835;48.850;8.938;2023-07-16T12:41:00;25.60;99.90
7588;DHT22;3835;48.850;8.938;2023-07-16T12:43:27;25.50;99.90
7588;DHT22;3835;48.850;8.938;2023-07-16T12:45:54;25.20;99.90
7588;DHT22;3835;48.850;8.938;2023-07-16T12:48:21;24.90;99.90
7588;DHT22;3835;48.850;8.938;2023-07-16T12:50:47;24.60;99.90
7588;DHT22;3835;48.850;8.938;2023-07-16T12:53:15;24.60;99.90
7588;DHT22;3835;48.850;8.938;2023-07-16T12:55:42;24.40;99.90
7588;DHT22;3835;48.850;8.938;2023-07-16T12:58:09;24.00;99.90
7588;DHT22;3835;48.850;8.938;2023-07-16T13:00:36;24.10;99.90
7588;DHT22;3835;48.850;8.938;2023-07-16T13:03:02;24.20;99.90
7588;DHT22;3835;48.850;8.938;2023-07-16T13:05:30;24.30;99.90
7588;DHT22;3835;48.850;8.938;2023-07-16T13:07:57;24.10;99.90
7588;DHT22;3835;48.850;8.938;2023-07-16T13:10:25;23.80;99.90
7588;DHT22;3835;48.850;8.938;2023-07-16T13:12:51;23.90;99.90
7588;DHT22;3835;48.850;8.938;2023-07-16T13:15:18;24.30;99.90
7588;DHT22;3835;48.850;8.938;2023-07-16T13:17:45;24.70;99.90
7588;DHT22;3835;48.850;8.938;2023-07-16T13:20:13;24.90;99.90
7588;DHT22;3835;48.850;8.938;2023-07-16T13:22:40;24.90;99.90
7588;DHT22;3835;48.850;8.938;2023-07-16T13:25:07;24.90;99.90
7588;DHT22;3835;48.850;8.938;2023-07-16T13:27:35;24.90;99.90
7588;DHT22;3835;48.850;8.938;2023-07-16T13:30:02;24.90;99.90
7588;DHT22;3835;48.850;8.938;2023-07-16T13:32:29;24.80;99.90
7588;DHT22;3835;48.850;8.938;2023-07-16T13:34:56;24.60;99.90
7588;DHT22;3835;48.850;8.938;2023-07-16T13:37:23;25.00;99.90
7588;DHT22;3835;48.850;8.938;2023-07-16T13:39:50;25.30;99.90
7588;DHT22;3835;48.850;8.938;2023-07-16T13:42:16;25.40;99.90
7588;DHT22;3835;48.850;8.938;2023-07-16T13:44:44;25.30;99.90
7588;DHT22;3835;48.850;8.938;2023-07-16T13:47:11;25.00;99.90
7588;DHT22;3835;48.850;8.938;2023-07-16T13:49:38;24.80;99.90
7588;DHT22;3835;48.850;8.938;2023-07-16T13:52:05;24.20;99.90
7588;DHT22;3835;48.850;8.938;2023-07-16T13:54:32;24.20;99.90
7588;DHT22;3835;48.850;8.938;2023-07-16T13:56:59;24.30;99.90
7588;DHT22;3835;48.850;8.938;2023-07-16T13:59:25;24.50;99.90
7588;DHT22;3835;48.850;8.938;2023-07-16T14:02:00;24.60;99.90
7588;DHT22;3835;48.850;8.938;2023-07-16T14:04:27;25.00;99.90
7588;DHT22;3835;48.850;8.938;2023-07-16T14:06:54;25.10;99.90
7588;DHT22;3835;48.850;8.938;2023-07-16T14:09:22;24.80;99.90
7588;DHT22;3835;48.850;8.938;2023-07-16T14:11:49;24.80;99.90
7588;DHT22;3835;48.850;8.938;2023-07-16T14:14:16;24.80;99.90
7588;DHT22;3835;48.850;8.938;2023-07-16T14:16:42;24.60;99.90
7588;DHT22;3835;48.850;8.938;2023-07-16T14:19:11;24.80;99.90
7588;DHT22;3835;48.850;8.938;2023-07-16T14:21:38;24.90;99.90
7588;DHT22;3835;48.850;8.938;2023-07-16T14:24:05;24.60;99.90
7588;DHT22;3835;48.850;8.938;2023-07-16T14:26:32;24.00;99.90
7588;DHT22;3835;48.850;8.938;2023-07-16T14:28:59;24.10;99.90
7588;DHT22;3835;48.850;8.938;2023-07-16T14:31:26;23.90;99.90
7588;DHT22;3835;48.850;8.938;2023-07-16T14:33:53;23.70;99.90
7588;DHT22;3835;48.850;8.938;2023-07-16T14:36:21;23.60;99.90
7588;DHT22;3835;48.850;8.938;2023-07-16T14:38:48;23.40;99.90
7588;DHT22;3835;48.850;8.938;2023-07-16T14:41:15;23.40;99.90
7588;DHT22;3835;48.850;8.938;2023-07-16T14:43:41;23.60;99.90
7588;DHT22;3835;48.850;8.938;2023-07-16T14:46:10;23.70;99.90
7588;DHT22;3835;48.850;8.938;2023-07-16T14:48:41;23.50;99.90
7588;DHT22;3835;48.850;8.938;2023-07-16T14:51:07;23.60;99.90
7588;DHT22;3835;48.850;8.938;2023-07-16T14:53:35;23.90;99.90
7588;DHT22;3835;48.850;8.938;2023-07-16T14:56:03;24.00;99.90
7588;DHT22;3835;48.850;8.938;2023-07-16T14:58:33;24.10;99.90
7588;DHT22;3835;48.850;8.938;2023-07-16T15:01:01;24.20;99.90
7588;DHT22;3835;48.850;8.938;2023-07-16T15:03:33;24.20;99.90
7588;DHT22;3835;48.850;8.938;2023-07-16T15:06:00;24.30;99.60
7588;DHT22;3835;48.850;8.938;2023-07-16T15:08:26;24.20;98.90
7588;DHT22;3835;48.850;8.938;2023-07-16T15:10:56;24.00;99.00
7588;DHT22;3835;48.850;8.938;2023-07-16T15:13:24;24.10;99.90
7588;DHT22;3835;48.850;8.938;2023-07-16T15:15:53;24.10;99.60
7588;DHT22;3835;48.850;8.938;2023-07-16T15:18:20;24.10;99.10
7588;DHT22;3835;48.850;8.938;2023-07-16T15:20:47;23.60;99.90
7588;DHT22;3835;48.850;8.938;2023-07-16T15:23:14;23.20;99.90
7588;DHT22;3835;48.850;8.938;2023-07-16T15:25:41;22.90;99.90
7588;DHT22;3835;48.850;8.938;2023-07-16T15:28:10;23.00;99.90
7588;DHT22;3835;48.850;8.938;2023-07-16T15:30:37;22.90;99.90
7588;DHT22;3835;48.850;8.938;2023-07-16T15:33:04;23.00;99.30
7588;DHT22;3835;48.850;8.938;2023-07-16T15:35:30;23.20;99.90
7588;DHT22;3835;48.850;8.938;2023-07-16T15:37:57;23.40;99.90
7588;DHT22;3835;48.850;8.938;2023-07-16T15:40:25;23.50;99.60
7588;DHT22;3835;48.850;8.938;2023-07-16T15:42:52;23.80;99.30
7588;DHT22;3835;48.850;8.938;2023-07-16T15:45:20;24.00;98.70
7588;DHT22;3835;48.850;8.938;2023-07-16T15:47:47;23.80;98.80
7588;DHT22;3835;48.850;8.938;2023-07-16T15:50:19;23.80;98.80
7588;DHT22;3835;48.850;8.938;2023-07-16T15:52:46;23.90;99.00
7588;DHT22;3835;48.850;8.938;2023-07-16T15:55:13;23.90;99.30
7588;DHT22;3835;48.850;8.938;2023-07-16T15:57:39;23.80;99.60
7588;DHT22;3835;48.850;8.938;2023-07-16T16:00:07;23.70;98.90
7588;DHT22;3835;48.850;8.938;2023-07-16T16:02:41;23.80;99.10
7588;DHT22;3835;48.850;8.938;2023-07-16T16:05:08;23.70;99.20
7588;DHT22;3835;48.850;8.938;2023-07-16T16:07:35;23.50;99.70